Time;durP1;ratioP1;P1;durP2;ratioP2;P2;SDS_P1;SDS_P2;PMS_P1;PMS_P2;Temp;Humidity;BMP_temperature;BMP_pressure;BME280_temperature;BME280_humidity;BME280_pressure;Samples;Min_cycle;Max_cycle;Signal;HPM_P1;HPM_P2
2022/08/24 00:01:44;;;;;;;32.47;29.27;;;20.10;99.90;;;;;;5089882;28;20566;-73
2022/08/24 00:04:30;;;;;;;33.83;30.52;;;20.10;99.90;;;;;;5103466;28;20043;-73
2022/08/24 00:07:18;;;;;;;31.65;28.73;;;20.10;99.90;;;;;;5094434;28;20505;-73
2022/08/24 00:10:06;;;;;;;32.13;28.85;;;20.00;99.90;;;;;;5089670;28;20478;-72
2022/08/24 00:12:52;;;;;;;32.22;28.92;;;20.00;99.90;;;;;;5103643;28;20058;-72
2022/08/24 00:15:38;;;;;;;31.45;28.15;;;20.00;99.90;;;;;;5094302;28;20639;-73
2022/08/24 00:18:24;;;;;;;25.58;23.08;;;20.00;99.90;;;;;;5072456;28;20048;-72
2022/08/24 00:21:11;;;;;;;15.45;14.02;;;19.90;99.90;;;;;;5072097;28;20422;-73
2022/08/24 00:23:57;;;;;;;17.95;16.55;;;19.80;99.90;;;;;;5072457;28;20040;-73
2022/08/24 00:26:44;;;;;;;21.38;19.77;;;19.70;99.90;;;;;;5082598;28;20059;-72
2022/08/24 00:29:31;;;;;;;23.77;21.70;;;19.60;99.90;;;;;;5085880;28;20068;-72
2022/08/24 00:32:16;;;;;;;24.65;22.58;;;19.40;99.90;;;;;;5055302;28;20043;-72
2022/08/24 00:35:04;;;;;;;21.83;20.02;;;19.40;99.90;;;;;;5085019;28;20110;-73
2022/08/24 00:37:52;;;;;;;23.50;21.23;;;19.30;99.90;;;;;;5065678;28;20120;-73
2022/08/24 00:40:41;;;;;;;22.92;20.92;;;19.30;99.90;;;;;;5065906;28;20055;-73
2022/08/24 00:43:28;;;;;;;32.28;28.88;;;19.30;99.90;;;;;;5085470;28;20444;-73
2022/08/24 00:46:24;;;;;;;36.47;32.83;;;19.20;99.90;;;;;;5068551;28;20040;-73
2022/08/24 00:49:24;;;;;;;33.42;30.10;;;19.20;99.90;;;;;;5056419;28;20044;-73
2022/08/24 00:52:34;;;;;;;29.45;26.88;;;19.20;99.90;;;;;;5090625;28;20040;-72
2022/08/24 00:55:44;;;;;;;31.40;28.30;;;19.10;99.90;;;;;;5084475;28;20051;-72
2022/08/24 00:58:43;;;;;;;27.85;25.27;;;19.10;99.90;;;;;;5083299;28;20048;-70
2022/08/24 01:01:32;;;;;;;28.60;26.10;;;19.00;99.90;;;;;;5066503;28;20051;-72
2022/08/24 01:04:36;;;;;;;28.70;26.17;;;19.00;99.90;;;;;;5093299;28;20044;-73
2022/08/24 01:07:24;;;;;;;30.08;27.10;;;18.90;99.90;;;;;;5075203;28;20048;-73
2022/08/24 01:10:15;;;;;;;34.85;31.33;;;18.90;99.90;;;;;;5074986;28;20143;-73
2022/08/24 01:13:04;;;;;;;31.70;28.60;;;18.90;99.90;;;;;;5086697;28;20110;-73
2022/08/24 01:15:54;;;;;;;55.40;31.38;;;18.90;99.90;;;;;;5068905;28;20559;-73
2022/08/24 01:18:49;;;;;;;194.82;23.05;;;18.90;99.90;;;;;;5071400;28;20048;-73
2022/08/24 01:21:45;;;;;;;23.80;21.50;;;18.80;99.90;;;;;;5095668;28;20482;-73
2022/08/24 01:24:31;;;;;;;23.98;21.83;;;18.80;99.90;;;;;;5103256;28;20036;-72
2022/08/24 01:27:17;;;;;;;20.02;18.33;;;18.70;99.90;;;;;;5105504;28;20044;-73
2022/08/24 01:30:07;;;;;;;19.52;17.67;;;18.70;99.90;;;;;;5088483;28;20079;-73
2022/08/24 01:33:04;;;;;;;37.85;19.75;;;18.70;99.90;;;;;;5099039;28;20054;-73
2022/08/24 01:35:57;;;;;;;21.58;19.58;;;18.70;99.90;;;;;;5095712;28;20092;-73
2022/08/24 01:38:44;;;;;;;;;;;18.60;99.90;;;;;;5095502;28;20043;-73
2022/08/24 01:41:30;;;;;;;25.25;22.83;;;18.60;99.90;;;;;;5094950;28;20373;-73
2022/08/24 01:44:17;;;;;;;27.02;24.10;;;18.60;99.90;;;;;;5104506;28;20044;-73
2022/08/24 01:47:05;;;;;;;26.27;23.77;;;18.60;99.90;;;;;;5092901;28;20052;-73
2022/08/24 01:49:51;;;;;;;36.88;33.25;;;18.70;99.90;;;;;;5094492;28;20425;-73
2022/08/24 01:52:40;;;;;;;25.77;23.50;;;18.70;99.90;;;;;;5079535;28;20048;-73
2022/08/24 01:55:26;;;;;;;21.65;19.60;;;18.70;99.90;;;;;;5090804;28;20048;-73
2022/08/24 01:58:12;;;;;;;28.13;25.38;;;18.70;99.90;;;;;;5089297;28;20091;-73
2022/08/24 02:00:58;;;;;;;10.23;9.43;;;18.70;99.90;;;;;;5093454;28;20138;-73
2022/08/24 02:03:44;;;;;;;16.55;15.02;;;18.70;99.90;;;;;;5098056;28;20043;-73
2022/08/24 02:06:32;;;;;;;23.63;21.45;;;18.60;99.90;;;;;;5086401;28;20409;-73
2022/08/24 02:09:18;;;;;;;31.10;28.08;;;18.60;99.90;;;;;;5094601;28;20108;-73
2022/08/24 02:12:05;;;;;;;32.95;29.70;;;18.60;99.90;;;;;;5092950;28;20048;-73
2022/08/24 02:14:51;;;;;;;20.70;18.85;;;18.60;99.90;;;;;;5085679;28;20044;-73
2022/08/24 02:17:37;;;;;;;11.63;10.70;;;18.50;99.90;;;;;;5090258;28;20141;-73
2022/08/24 02:20:24;;;;;;;10.05;9.20;;;18.60;99.90;;;;;;5091842;28;20075;-73
2022/08/24 02:23:11;;;;;;;15.18;14.07;;;18.50;99.90;;;;;;5069935;28;20058;-73
2022/08/24 02:25:56;;;;;;;12.55;11.65;;;18.40;99.90;;;;;;5070709;28;20047;-73
2022/08/24 02:28:42;;;;;;;12.90;11.90;;;18.30;99.90;;;;;;5073381;28;20139;-73
2022/08/24 02:31:29;;;;;;;17.33;15.82;;;18.20;99.90;;;;;;5091101;28;20097;-73
2022/08/24 02:34:14;;;;;;;8.45;7.85;;;18.20;99.90;;;;;;5091684;28;20043;-73
2022/08/24 02:37:00;;;;;;;11.57;10.52;;;18.10;99.90;;;;;;5088828;28;20079;-73
2022/08/24 02:39:46;;;;;;;6.70;6.22;;;18.00;99.90;;;;;;5061283;28;20052;-73
2022/08/24 02:42:33;;;;;;;7.00;6.50;;;18.00;99.90;;;;;;5074143;28;20048;-73
2022/08/24 02:45:18;;;;;;;17.75;16.25;;;17.90;99.90;;;;;;5074301;28;20056;-73
2022/08/24 02:48:04;;;;;;;20.92;19.15;;;17.90;99.90;;;;;;5073403;28;20109;-73
2022/08/24 02:50:51;;;;;;;19.67;17.77;;;17.90;99.90;;;;;;5073885;28;20400;-73
2022/08/24 02:53:37;;;;;;;36.75;26.55;;;17.90;99.90;;;;;;5092048;28;20036;-73
2022/08/24 02:56:24;;;;;;;23.38;21.33;;;17.90;99.90;;;;;;5084043;28;20407;-73
2022/08/24 02:59:11;;;;;;;21.88;19.98;;;17.90;99.90;;;;;;5091173;28;20127;-73
2022/08/24 03:01:56;;;;;;;24.20;22.15;;;18.00;99.90;;;;;;5066575;28;20048;-73
2022/08/24 03:04:42;;;;;;;17.17;15.77;;;18.00;99.90;;;;;;5091622;28;20051;-73
2022/08/24 03:07:28;;;;;;;18.48;16.98;;;18.00;99.90;;;;;;5073296;28;20083;-73
2022/08/24 03:10:15;;;;;;;14.45;13.25;;;18.00;99.90;;;;;;5072836;28;20052;-73
2022/08/24 03:13:01;;;;;;;13.38;12.38;;;17.90;99.90;;;;;;5069947;28;20082;-73
2022/08/24 03:15:47;;;;;;;10.30;9.50;;;17.80;99.90;;;;;;5090565;28;20067;-73
2022/08/24 03:18:34;;;;;;;13.15;12.18;;;17.80;99.90;;;;;;5094535;28;20387;-73
2022/08/24 03:21:20;;;;;;;9.52;8.73;;;17.70;99.90;;;;;;5066650;28;20185;-73
2022/08/24 03:24:07;;;;;;;8.40;7.80;;;17.60;99.90;;;;;;5074101;28;20096;-73
2022/08/24 03:26:53;;;;;;;9.57;8.77;;;17.50;99.90;;;;;;5073626;28;20059;-73
2022/08/24 03:29:39;;;;;;;8.65;8.05;;;17.50;99.90;;;;;;5064852;28;20047;-73
2022/08/24 03:32:25;;;;;;;9.30;8.70;;;17.40;99.90;;;;;;5090850;28;20050;-73
2022/08/24 03:35:12;;;;;;;10.45;9.75;;;17.30;99.90;;;;;;5091870;28;20047;-73
2022/08/24 03:37:59;;;;;;;11.40;10.55;;;17.30;99.90;;;;;;5071356;28;20044;-73
2022/08/24 03:40:45;;;;;;;10.95;10.05;;;17.40;99.90;;;;;;5072424;28;20051;-73
2022/08/24 03:43:45;;;;;;;9.68;9.07;;;17.40;99.90;;;;;;5090713;28;20052;-73
2022/08/24 03:46:36;;;;;;;12.30;11.38;;;17.30;99.90;;;;;;5070834;28;20434;-73
2022/08/24 03:49:22;;;;;;;106.63;19.17;;;17.30;99.90;;;;;;5090410;28;20048;-73
2022/08/24 03:52:08;;;;;;;18.35;16.73;;;17.30;99.90;;;;;;5073477;28;20517;-73
2022/08/24 03:54:54;;;;;;;19.50;17.85;;;17.20;99.90;;;;;;5089456;28;20044;-73
2022/08/24 03:57:39;;;;;;;20.88;18.92;;;17.20;99.90;;;;;;5067582;28;20045;-73
2022/08/24 04:00:25;;;;;;;21.50;19.50;;;17.30;99.90;;;;;;5072106;28;20123;-73
2022/08/24 04:03:12;;;;;;;21.02;19.17;;;17.30;99.90;;;;;;5089898;28;20441;-73
2022/08/24 04:05:58;;;;;;;21.45;19.70;;;17.30;99.90;;;;;;5072789;28;20055;-73
2022/08/24 04:08:44;;;;;;;26.08;23.73;;;17.40;99.90;;;;;;5090277;28;20048;-73
2022/08/24 04:11:33;;;;;;;23.65;21.55;;;17.40;99.90;;;;;;5072605;28;20417;-73
2022/08/24 04:14:19;;;;;;;19.15;17.58;;;17.40;99.90;;;;;;5068644;28;20040;-73
2022/08/24 04:17:05;;;;;;;16.30;14.90;;;17.40;99.90;;;;;;5068961;28;20044;-73
2022/08/24 04:19:57;;;;;;;17.92;16.42;;;17.30;99.90;;;;;;5079638;28;20044;-73
2022/08/24 04:22:43;;;;;;;17.30;15.80;;;17.40;99.90;;;;;;5073787;28;20127;-73
2022/08/24 04:25:29;;;;;;;19.20;17.60;;;17.30;99.90;;;;;;5085609;28;20051;-73
2022/08/24 04:28:18;;;;;;;21.55;19.60;;;17.30;99.90;;;;;;5092594;28;20044;-73
2022/08/24 04:31:05;;;;;;;25.27;22.98;;;17.40;99.90;;;;;;5070035;28;20062;-73
2022/08/24 04:33:52;;;;;;;27.70;25.23;;;17.40;99.90;;;;;;5069760;28;20458;-73
2022/08/24 04:36:43;;;;;;;18.55;16.95;;;17.40;99.90;;;;;;5067115;28;20056;-73
2022/08/24 04:39:29;;;;;;;22.85;20.67;;;17.40;99.90;;;;;;5061967;28;20487;-74
2022/08/24 04:42:16;;;;;;;20.58;18.60;;;17.40;99.90;;;;;;5070662;28;20049;-73
2022/08/24 04:45:03;;;;;;;20.80;18.70;;;17.40;99.90;;;;;;5076667;28;20044;-73
2022/08/24 04:47:48;;;;;;;26.48;23.88;;;17.40;99.90;;;;;;5071802;28;20044;-73
2022/08/24 04:50:36;;;;;;;24.10;21.70;;;17.40;99.90;;;;;;5071406;28;20143;-73
2022/08/24 04:53:22;;;;;;;24.35;22.15;;;17.40;99.90;;;;;;5072341;28;20052;-73
2022/08/24 04:56:22;;;;;;;22.35;20.45;;;17.40;99.90;;;;;;5068211;28;20064;-73
2022/08/24 04:59:08;;;;;;;18.88;17.48;;;17.40;99.90;;;;;;5073653;28;20387;-73
2022/08/24 05:01:54;;;;;;;19.00;17.50;;;17.40;99.90;;;;;;5088439;28;20048;-73
2022/08/24 05:04:40;;;;;;;21.02;19.33;;;17.30;99.90;;;;;;5092819;28;20512;-73
2022/08/24 05:07:26;;;;;;;20.33;18.73;;;17.30;99.90;;;;;;5071281;28;20054;-73
2022/08/24 05:10:12;;;;;;;18.80;17.40;;;17.20;99.90;;;;;;5074187;28;20051;-73
2022/08/24 05:12:58;;;;;;;20.27;18.67;;;17.20;99.90;;;;;;5067428;28;20064;-73
2022/08/24 05:15:46;;;;;;;19.15;17.65;;;17.20;99.90;;;;;;5067438;28;20052;-73
2022/08/24 05:18:32;;;;;;;17.92;16.35;;;17.30;99.90;;;;;;5064283;28;20534;-74
2022/08/24 05:21:21;;;;;;;13.55;12.55;;;17.30;99.90;;;;;;5093059;28;20123;-73
2022/08/24 05:24:08;;;;;;;12.80;11.65;;;17.30;99.90;;;;;;5069658;28;20040;-73
2022/08/24 05:26:54;;;;;;;11.00;10.20;;;17.30;99.90;;;;;;5066521;28;20047;-73
2022/08/24 05:29:40;;;;;;;9.90;9.20;;;17.30;99.90;;;;;;5061561;28;20062;-73
2022/08/24 05:32:26;;;;;;;10.45;9.65;;;17.30;99.90;;;;;;5076553;28;20044;-73
2022/08/24 05:35:12;;;;;;;13.95;12.70;;;17.30;99.90;;;;;;5065111;28;20405;-73
2022/08/24 05:37:58;;;;;;;15.18;13.80;;;17.30;99.90;;;;;;5074634;28;20434;-73
2022/08/24 05:40:44;;;;;;;16.05;14.60;;;17.30;99.90;;;;;;5091584;28;20158;-73
2022/08/24 05:43:30;;;;;;;16.52;15.13;;;17.30;99.90;;;;;;5074493;28;20083;-73
2022/08/24 05:46:16;;;;;;;16.65;15.35;;;17.30;99.90;;;;;;5066180;28;20079;-73
2022/08/24 05:49:02;;;;;;;20.00;18.30;;;17.30;99.90;;;;;;5056015;28;20051;-73
2022/08/24 05:51:48;;;;;;;24.60;22.50;;;17.40;99.90;;;;;;5054634;28;20060;-73
2022/08/24 05:54:34;;;;;;;29.08;26.25;;;17.40;99.90;;;;;;5054544;28;20043;-73
2022/08/24 05:57:21;;;;;;;33.13;30.20;;;17.50;99.90;;;;;;5070417;28;20425;-73
2022/08/24 06:00:09;;;;;;;39.75;36.03;;;17.60;99.90;;;;;;5090860;28;20429;-73
2022/08/24 06:02:55;;;;;;;54.33;48.85;;;17.60;99.90;;;;;;5067574;28;20052;-73
2022/08/24 06:05:43;;;;;;;53.35;47.90;;;17.70;99.90;;;;;;5075570;28;20105;-73
2022/08/24 06:08:29;;;;;;;48.42;43.75;;;17.80;99.90;;;;;;5071095;28;20045;-73
2022/08/24 06:11:43;;;;;;;44.83;40.28;;;17.90;99.90;;;;;;5061917;28;20040;-73
2022/08/24 06:14:29;;;;;;;45.08;40.67;;;17.90;99.90;;;;;;5074196;28;20113;-73
2022/08/24 06:17:15;;;;;;;48.05;43.42;;;18.00;99.90;;;;;;5073904;28;20055;-73
2022/08/24 06:20:01;;;;;;;45.83;41.38;;;18.10;99.90;;;;;;5072122;28;20044;-73
2022/08/24 06:22:47;;;;;;;53.20;47.90;;;18.20;99.90;;;;;;5078593;28;20525;-73
2022/08/24 06:28:37;;;;;;;65.25;58.25;;;18.40;99.90;;;;;;5070548;28;20095;-73
2022/08/24 06:31:23;;;;;;;66.88;59.60;;;18.50;99.90;;;;;;5071011;28;20036;-73
2022/08/24 06:34:11;;;;;;;71.05;63.35;;;18.60;99.90;;;;;;5078878;28;20059;-74
2022/08/24 06:36:57;;;;;;;72.72;64.75;;;18.80;99.90;;;;;;5064051;28;20051;-74
2022/08/24 06:39:43;;;;;;;65.13;57.80;;;18.90;99.90;;;;;;5073520;28;20120;-73
2022/08/24 06:42:30;;;;;;;74.47;64.10;;;19.00;99.90;;;;;;5059029;28;20422;-73
2022/08/24 06:45:16;;;;;;;70.10;60.33;;;19.10;99.90;;;;;;5071019;28;20132;-73
2022/08/24 06:48:03;;;;;;;109.15;82.03;;;19.30;99.90;;;;;;5070060;28;20054;-73
2022/08/24 06:50:49;;;;;;;94.40;73.10;;;19.30;99.90;;;;;;5069914;28;20077;-73
2022/08/24 06:53:35;;;;;;;100.30;74.25;;;19.50;99.90;;;;;;5069818;28;20504;-73
2022/08/24 06:56:21;;;;;;;76.60;64.57;;;19.60;99.90;;;;;;5074173;28;20078;-73
2022/08/24 06:59:07;;;;;;;69.53;60.90;;;19.70;99.90;;;;;;5091403;28;20047;-73
2022/08/24 07:01:56;;;;;;;64.95;55.92;;;19.80;99.90;;;;;;5072898;28;20048;-73
2022/08/24 07:04:42;;;;;;;65.28;55.10;;;20.00;99.90;;;;;;5072387;28;20051;-73
2022/08/24 07:07:28;;;;;;;60.40;54.08;;;20.10;99.90;;;;;;5073990;28;20131;-73
2022/08/24 07:10:14;;;;;;;63.42;52.65;;;20.20;99.90;;;;;;5074504;28;20108;-73
2022/08/24 07:13:00;;;;;;;59.00;52.60;;;20.30;99.90;;;;;;5092586;28;20048;-73
2022/08/24 07:15:46;;;;;;;59.83;51.97;;;20.50;99.90;;;;;;5075123;28;20131;-73
2022/08/24 07:18:32;;;;;;;56.42;49.13;;;20.60;99.90;;;;;;5063734;28;20052;-73
2022/08/24 07:21:18;;;;;;;56.00;49.97;;;20.70;99.90;;;;;;5078768;28;20062;-72
2022/08/24 07:24:05;;;;;;;54.95;49.33;;;20.90;99.90;;;;;;5065661;28;20398;-72
2022/08/24 07:26:51;;;;;;;52.88;47.45;;;21.10;99.90;;;;;;5062901;28;20080;-73
2022/08/24 07:29:38;;;;;;;51.80;43.95;;;21.20;99.90;;;;;;5069308;28;20552;-72
2022/08/24 07:32:24;;;;;;;52.17;46.63;;;21.40;99.90;;;;;;5074373;28;20036;-73
2022/08/24 07:35:10;;;;;;;49.17;44.25;;;21.50;99.90;;;;;;5091764;28;20040;-73
2022/08/24 07:37:57;;;;;;;48.45;43.25;;;21.70;99.90;;;;;;5059128;28;20102;-73
2022/08/24 07:40:46;;;;;;;43.28;38.75;;;21.90;99.90;;;;;;5058701;28;20063;-73
2022/08/24 07:43:32;;;;;;;41.42;37.40;;;22.00;99.90;;;;;;5087196;28;20044;-73
2022/08/24 07:46:19;;;;;;;45.63;41.20;;;22.10;99.90;;;;;;5060985;28;20480;-73
2022/08/24 07:49:09;;;;;;;44.53;39.83;;;22.30;99.90;;;;;;5086534;28;20098;-73
2022/08/24 07:51:56;;;;;;;43.70;38.10;;;22.40;99.90;;;;;;5065234;28;20044;-73
2022/08/24 07:54:41;;;;;;;34.08;30.38;;;22.60;99.90;;;;;;5087697;28;20036;-73
2022/08/24 07:57:27;;;;;;;35.35;29.08;;;22.70;99.90;;;;;;5082586;28;20044;-73
2022/08/24 08:00:15;;;;;;;35.25;31.83;;;22.80;99.90;;;;;;5087232;28;20092;-73
2022/08/24 08:03:03;;;;;;;30.15;26.30;;;23.00;99.90;;;;;;5062868;28;20483;-73
2022/08/24 08:05:54;;;;;;;32.80;29.13;;;23.10;99.90;;;;;;5093615;28;20041;-73
2022/08/24 08:08:40;;;;;;;28.27;25.35;;;23.30;99.90;;;;;;5084229;28;20045;-73
2022/08/24 08:11:26;;;;;;;26.88;22.85;;;23.40;99.90;;;;;;5061404;28;20052;-74
2022/08/24 08:14:13;;;;;;;26.10;22.25;;;23.60;99.90;;;;;;5058523;28;20048;-74
2022/08/24 08:16:59;;;;;;;23.40;21.08;;;23.80;99.90;;;;;;5079703;28;20450;-74
2022/08/24 08:19:45;;;;;;;23.75;19.83;;;23.90;99.90;;;;;;5067469;28;20083;-74
2022/08/24 08:25:37;;;;;;;19.35;17.40;;;24.10;99.90;;;;;;5068509;28;20039;-74
2022/08/24 08:28:24;;;;;;;27.55;19.30;;;24.30;99.90;;;;;;5060978;28;20414;-73
2022/08/24 08:31:11;;;;;;;22.42;17.85;;;24.50;99.90;;;;;;5068790;28;20448;-74
2022/08/24 08:33:57;;;;;;;20.77;18.40;;;24.70;99.90;;;;;;5065623;28;20043;-74
2022/08/24 08:36:43;;;;;;;21.98;17.85;;;24.80;99.90;;;;;;5085111;28;20045;-74
2022/08/24 08:39:29;;;;;;;20.35;18.17;;;24.90;99.90;;;;;;5068099;28;20044;-73
2022/08/24 08:42:33;;;;;;;21.90;19.23;;;25.10;99.90;;;;;;5072207;28;20036;-73
2022/08/24 08:45:45;;;;;;;19.92;17.73;;;25.30;99.90;;;;;;5055023;28;20505;-73
2022/08/24 08:48:52;;;;;;;20.08;17.92;;;25.40;99.90;;;;;;5066225;28;20544;-74
2022/08/24 08:51:57;;;;;;;18.38;16.48;;;25.50;99.90;;;;;;5082264;28;20135;-74
2022/08/24 08:54:48;;;;;;;17.67;15.48;;;25.80;99.90;;;;;;5068328;28;20056;-73
2022/08/24 08:57:42;;;;;;;16.98;14.20;;;25.90;99.90;;;;;;5067296;28;20058;-73
2022/08/24 09:01:00;;;;;;;21.25;13.80;;;26.10;99.90;;;;;;5068081;28;20048;-73
2022/08/24 09:04:13;;;;;;;18.60;11.55;;;26.30;99.90;;;;;;5067402;28;20055;-74
2022/08/24 09:07:14;;;;;;;14.70;10.55;;;26.40;99.90;;;;;;5074178;28;20131;-74
2022/08/24 09:10:03;;;;;;;17.67;10.27;;;26.50;99.90;;;;;;5064464;28;20051;-74
2022/08/24 09:13:13;;;;;;;12.55;8.40;;;26.70;99.90;;;;;;5067797;28;20041;-73
2022/08/24 09:16:37;;;;;;;9.82;7.75;;;26.90;99.90;;;;;;5069048;28;20498;-73
2022/08/24 09:19:40;;;;;;;16.17;8.90;;;27.00;99.90;;;;;;5067847;28;20037;-73
2022/08/24 09:22:26;;;;;;;13.35;9.48;;;27.10;99.90;;;;;;5067335;28;20040;-73
2022/08/24 09:25:39;;;;;;;10.20;8.27;;;27.30;99.90;;;;;;5068879;28;20059;-73
2022/08/24 09:29:03;;;;;;;13.30;8.30;;;27.50;99.90;;;;;;5064917;28;20044;-73
2022/08/24 09:32:04;;;;;;;13.85;7.63;;;27.60;99.90;;;;;;5083504;28;20044;-73
2022/08/24 09:35:03;;;;;;;14.38;8.77;;;27.70;99.90;;;;;;5082728;28;20048;-73
2022/08/24 09:38:20;;;;;;;13.57;9.10;;;27.70;99.90;;;;;;5071801;28;20048;-73
2022/08/24 09:41:40;;;;;;;11.23;7.57;;;27.90;99.90;;;;;;5068344;28;20044;-74
2022/08/24 09:44:53;;;;;;;12.88;6.75;;;28.00;99.90;;;;;;5063597;28;20051;-73
2022/08/24 09:48:00;;;;;;;7.75;5.32;;;28.30;99.90;;;;;;5066567;28;20057;-72
2022/08/24 09:51:15;;;;;;;10.48;5.10;;;28.50;99.90;;;;;;5064567;28;20044;-73
2022/08/24 09:54:38;;;;;;;9.40;6.90;;;28.60;99.90;;;;;;5085030;28;20047;-72
2022/08/24 09:57:58;;;;;;;9.55;6.53;;;28.60;99.90;;;;;;5067212;28;20044;-72
2022/08/24 10:00:54;;;;;;;9.27;5.32;;;28.50;99.90;;;;;;5069648;28;20515;-73
2022/08/24 10:04:05;;;;;;;7.60;4.60;;;28.70;99.90;;;;;;5083972;28;20047;-73
2022/08/24 10:07:14;;;;;;;8.80;4.55;;;28.90;98.60;;;;;;5068912;28;20044;-73
2022/08/24 10:10:11;;;;;;;6.60;4.03;;;29.20;99.90;;;;;;5078624;28;20509;-73
2022/08/24 10:13:30;;;;;;;6.15;4.35;;;29.30;99.90;;;;;;5069769;28;20077;-73
2022/08/24 10:16:24;;;;;;;10.45;5.05;;;29.40;98.00;;;;;;5064846;28;20070;-73
2022/08/24 10:19:38;;;;;;;9.07;4.88;;;29.50;97.00;;;;;;5063327;28;20048;-73
2022/08/24 10:22:51;;;;;;;10.70;4.80;;;29.70;97.30;;;;;;5071579;28;20076;-73
2022/08/24 10:26:20;;;;;;;6.07;4.38;;;29.90;97.20;;;;;;5063469;28;20036;-73
2022/08/24 10:29:41;;;;;;;8.73;4.22;;;30.10;95.90;;;;;;5064059;28;20036;-73
2022/08/24 10:32:51;;;;;;;8.23;4.20;;;30.20;94.90;;;;;;5079481;28;20079;-73
2022/08/24 10:35:58;;;;;;;7.97;4.65;;;30.30;95.80;;;;;;5066946;28;20078;-73
2022/08/24 10:45:45;;;;;;;5.88;3.72;;;30.70;91.90;;;;;;5065685;28;20051;-73
2022/08/24 10:48:30;;;;;;;4.57;3.50;;;30.70;93.40;;;;;;5063251;28;20081;-72
2022/08/24 10:51:28;;;;;;;6.55;3.65;;;30.70;91.70;;;;;;5060572;28;20423;-73
2022/08/24 10:54:18;;;;;;;8.65;3.53;;;30.70;91.80;;;;;;5062236;28;20055;-72
2022/08/24 10:57:29;;;;;;;5.28;2.88;;;30.90;92.60;;;;;;5064064;28;20148;-73
2022/08/24 11:00:18;;;;;;;4.32;2.83;;;31.00;92.10;;;;;;5075552;28;20045;-73
2022/08/24 11:03:18;;;;;;;6.60;3.20;;;31.20;90.00;;;;;;5064249;28;20093;-73
2022/08/24 11:06:14;;;;;;;3.65;2.60;;;31.40;90.30;;;;;;5066909;28;20040;-73
2022/08/24 11:09:10;;;;;;;5.00;2.47;;;31.70;88.80;;;;;;5062422;28;20113;-73
2022/08/24 11:12:09;;;;;;;5.68;1.77;;;31.80;87.60;;;;;;5061239;28;20044;-73
2022/08/24 11:14:59;;;;;;;4.38;2.03;;;32.00;89.00;;;;;;5072780;28;20041;-73
2022/08/24 11:18:03;;;;;;;5.28;2.30;;;32.00;87.20;;;;;;5060030;28;20049;-73
2022/08/24 11:20:54;;;;;;;7.50;1.98;;;32.00;85.90;;;;;;5065632;28;20077;-73
2022/08/24 11:23:41;;;;;;;4.50;2.00;;;31.90;83.10;;;;;;5065736;28;20068;-73
2022/08/24 11:26:27;;;;;;;5.60;2.40;;;32.10;85.20;;;;;;5085395;28;20126;-73
2022/08/24 11:29:13;;;;;;;3.10;1.95;;;32.10;82.60;;;;;;5065837;28;20041;-73
2022/08/24 11:31:59;;;;;;;5.75;1.90;;;32.20;84.20;;;;;;5065197;28;20537;-73
2022/08/24 11:34:45;;;;;;;4.45;1.88;;;32.50;83.70;;;;;;5093103;28;20094;-72
2022/08/24 11:37:34;;;;;;;5.97;2.03;;;32.70;85.10;;;;;;5088503;28;20102;-73
2022/08/24 11:40:26;;;;;;;6.47;1.60;;;32.90;83.90;;;;;;5092594;28;20052;-73
2022/08/24 11:43:34;;;;;;;;;;;33.00;84.00;;;;;;5066531;28;20036;-73
2022/08/24 11:46:22;;;;;;;2.72;1.23;;;33.20;82.80;;;;;;5090200;28;20383;-72
2022/08/24 11:49:17;;;;;;;2.92;1.60;;;33.20;81.20;;;;;;5074428;28;20058;-73
2022/08/24 11:52:18;;;;;;;1.95;1.10;;;33.10;77.30;;;;;;5076854;28;20036;-73
2022/08/24 11:55:23;;;;;;;3.47;1.23;;;33.30;77.60;;;;;;5073127;28;20051;-73
2022/08/24 11:58:26;;;;;;;2.63;1.25;;;33.50;79.10;;;;;;5065620;28;20052;-73
2022/08/24 12:01:28;;;;;;;4.88;1.30;;;33.50;78.10;;;;;;5088673;28;20071;-73
2022/08/24 12:04:17;;;;;;;5.28;1.30;;;33.80;77.20;;;;;;5076615;28;20395;-72
2022/08/24 12:07:14;;;;;;;3.25;1.15;;;33.60;71.90;;;;;;5074516;28;20067;-71
2022/08/24 12:10:37;;;;;;;2.25;1.50;;;33.40;74.70;;;;;;5072770;28;20044;-72
2022/08/24 12:13:58;;;;;;;1.77;1.30;;;33.50;73.70;;;;;;5073284;28;20487;-72
2022/08/24 12:16:54;;;;;;;4.70;1.30;;;33.90;73.40;;;;;;5063414;28;20098;-72
2022/08/24 12:19:50;;;;;;;3.97;1.50;;;33.60;72.60;;;;;;5079010;28;20118;-71
2022/08/24 12:22:39;;;;;;;3.25;1.48;;;33.60;70.50;;;;;;5091554;28;20112;-72
2022/08/24 12:28:40;;;;;;;4.88;1.52;;;33.40;69.60;;;;;;5072211;28;20493;-72
2022/08/24 12:31:32;;;;;;;3.33;1.30;;;33.60;69.10;;;;;;5065763;28;20047;-72
2022/08/24 12:34:46;;;;;;;5.60;1.05;;;33.70;69.50;;;;;;5061287;28;20076;-72
2022/08/24 12:37:42;;;;;;;4.50;1.10;;;34.10;71.50;;;;;;5073877;28;20071;-72
2022/08/24 12:40:34;;;;;;;3.50;1.15;;;34.40;68.40;;;;;;5075722;28;20522;-72
2022/08/24 12:43:29;;;;;;;1.83;0.80;;;34.50;68.30;;;;;;5072841;28;20486;-72
2022/08/24 12:46:21;;;;;;;1.25;0.88;;;34.60;66.20;;;;;;5068502;28;20127;-73
2022/08/24 12:49:24;;;;;;;3.10;1.00;;;34.80;65.10;;;;;;5074759;28;20048;-72
2022/08/24 12:52:25;;;;;;;2.65;0.80;;;35.00;65.60;;;;;;5074854;28;20096;-72
2022/08/24 12:55:26;;;;;;;3.03;0.90;;;34.90;64.40;;;;;;5062168;28;20532;-72
2022/08/24 12:58:23;;;;;;;3.45;0.80;;;35.00;63.40;;;;;;5075032;28;20051;-72
2022/08/24 13:01:12;;;;;;;1.55;0.65;;;35.00;66.20;;;;;;5092443;28;20055;-72
2022/08/24 13:04:05;;;;;;;2.05;1.00;;;35.20;65.50;;;;;;5102308;28;20044;-73
2022/08/24 13:07:00;;;;;;;4.03;1.20;;;35.10;63.60;;;;;;5078489;28;20051;-73
2022/08/24 13:09:56;;;;;;;2.28;1.15;;;35.30;61.20;;;;;;5089727;28;20043;-72
2022/08/24 13:12:42;;;;;;;3.60;1.10;;;34.80;62.40;;;;;;5068562;28;20504;-73
2022/08/24 13:15:31;;;;;;;2.25;1.00;;;35.00;66.30;;;;;;5072448;28;20056;-73
2022/08/24 13:18:17;;;;;;;6.65;1.10;;;35.30;66.60;;;;;;5075545;28;20587;-71
2022/08/24 13:21:15;;;;;;;2.05;1.02;;;35.60;64.50;;;;;;5078710;28;20720;-74
2022/08/24 13:24:29;;;;;;;3.08;1.00;;;35.80;67.20;;;;;;5075446;28;20101;-73
2022/08/24 13:27:15;;;;;;;2.97;0.88;;;36.00;67.70;;;;;;5087515;28;20048;-73
2022/08/24 13:30:17;;;;;;;1.77;0.63;;;36.00;61.30;;;;;;5092550;28;20055;-73
2022/08/24 13:33:09;;;;;;;1.63;0.77;;;36.00;61.30;;;;;;5072620;28;20577;-73
2022/08/24 13:35:57;;;;;;;5.65;0.98;;;35.90;60.00;;;;;;5074607;28;20044;-72
2022/08/24 13:39:01;;;;;;;4.00;0.82;;;35.70;60.90;;;;;;5059866;28;20052;-73
2022/08/24 13:42:15;;;;;;;1.35;0.80;;;36.00;59.80;;;;;;5066663;28;20500;-73
2022/08/24 13:45:30;;;;;;;2.83;0.80;;;36.30;60.70;;;;;;5061340;28;20044;-73
2022/08/24 13:48:40;;;;;;;1.05;0.60;;;36.10;56.00;;;;;;5090853;28;20355;-73
2022/08/24 13:51:54;;;;;;;3.33;0.97;;;36.30;56.10;;;;;;5075904;28;20094;-73
2022/08/24 13:54:42;;;;;;;1.15;0.88;;;36.30;56.20;;;;;;5083927;28;20053;-73
2022/08/24 13:57:41;;;;;;;1.90;0.80;;;36.30;58.60;;;;;;5063065;28;20044;-72
2022/08/24 14:00:39;;;;;;;4.68;1.00;;;36.60;59.40;;;;;;5074276;28;20055;-73
2022/08/24 14:03:38;;;;;;;1.48;0.80;;;36.50;57.20;;;;;;5076781;28;20399;-73
2022/08/24 14:06:28;;;;;;;1.38;0.80;;;36.80;58.30;;;;;;5061504;28;20144;-73
2022/08/24 14:09:34;;;;;;;1.95;0.80;;;36.90;55.50;;;;;;5074032;28;20047;-74
2022/08/24 14:12:29;;;;;;;5.18;0.93;;;37.00;55.80;;;;;;5067849;28;20048;-73
2022/08/24 14:17:50;;;;;;;2.92;0.90;;;36.80;54.50;;;;;;5080309;28;20386;-71
2022/08/24 14:19:18;;;;;;;1.48;0.70;;;36.90;56.50;;;;;;5078019;28;20136;-71
2022/08/24 14:22:10;;;;;;;1.13;0.70;;;36.80;55.50;;;;;;5056262;28;20052;-71
2022/08/24 14:25:20;;;;;;;3.08;1.27;;;36.80;53.80;;;;;;5066194;28;20060;-71
2022/08/24 14:28:31;;;;;;;2.20;0.90;;;36.20;55.30;;;;;;5054587;28;20143;-70
2022/08/24 14:31:26;;;;;;;2.83;0.80;;;36.40;54.30;;;;;;5054810;28;20404;-71
2022/08/24 14:34:40;;;;;;;2.00;0.70;;;36.70;55.30;;;;;;5067520;28;20049;-71
2022/08/24 14:37:55;;;;;;;1.23;0.73;;;36.80;55.40;;;;;;5053506;28;20041;-71
2022/08/24 14:41:08;;;;;;;1.67;0.63;;;37.20;55.40;;;;;;5066388;28;20045;-71
2022/08/24 14:44:04;;;;;;;0.77;0.70;;;37.50;55.20;;;;;;5067426;28;20059;-70
2022/08/24 14:46:55;;;;;;;2.00;0.90;;;37.40;51.90;;;;;;5067496;28;20044;-71
2022/08/24 14:50:04;;;;;;;1.85;0.90;;;37.10;52.70;;;;;;5067408;28;20079;-71
2022/08/24 14:53:30;;;;;;;1.52;0.80;;;37.10;52.90;;;;;;5053104;28;20115;-70
2022/08/24 14:56:24;;;;;;;3.50;0.90;;;37.20;54.80;;;;;;5057141;28;20403;-70
2022/08/24 14:59:48;;;;;;;4.00;0.70;;;37.40;53.60;;;;;;5067840;28;20073;-70
2022/08/24 15:02:47;;;;;;;2.47;0.77;;;37.70;53.60;;;;;;5056587;28;20040;-71
2022/08/24 15:05:33;;;;;;;4.20;0.80;;;38.00;53.80;;;;;;5054575;28;20478;-70